createdAt,value
2018-10-18T00:00:14.188Z,98247.00
2018-10-18T00:04:16.475Z,98252.00
2018-10-18T00:08:18.922Z,98250.00
2018-10-18T00:12:21.260Z,98255.00
2018-10-18T00:16:24.383Z,98252.00
2018-10-18T00:20:26.768Z,98258.00
2018-10-18T00:24:29.163Z,98255.00
2018-10-18T00:28:31.519Z,98252.00
2018-10-18T00:32:33.831Z,98257.00
2018-10-18T00:36:36.145Z,98254.00
2018-10-18T00:40:38.507Z,98248.00
2018-10-18T00:44:40.841Z,98240.00
2018-10-18T00:48:43.183Z,98243.00
2018-10-18T00:52:45.525Z,98238.00
2018-10-18T00:56:47.824Z,98236.00
2018-10-18T01:00:50.378Z,98233.00
2018-10-18T01:04:52.689Z,98234.00
2018-10-18T01:08:54.998Z,98235.00
2018-10-18T01:12:57.333Z,98231.00
2018-10-18T01:17:02.788Z,98235.00
2018-10-18T01:21:05.206Z,98239.00
2018-10-18T01:25:07.614Z,98230.00
2018-10-18T01:29:10.022Z,98234.00
2018-10-18T01:33:12.389Z,98225.00
2018-10-18T01:37:14.716Z,98227.00
2018-10-18T01:41:17.118Z,98224.00
2018-10-18T01:45:19.522Z,98226.00
2018-10-18T01:49:21.829Z,98226.00
2018-10-18T01:53:24.572Z,98220.00
2018-10-18T01:57:26.898Z,98220.00
2018-10-18T02:01:29.842Z,98219.00
2018-10-18T02:05:32.193Z,98222.00
2018-10-18T02:09:34.517Z,98219.00
2018-10-18T02:13:37.054Z,98226.00
2018-10-18T02:17:39.983Z,98229.00
2018-10-18T02:21:42.354Z,98219.00
2018-10-18T02:25:44.712Z,98219.00
2018-10-18T02:29:47.082Z,98222.00
2018-10-18T02:33:49.482Z,98219.00
2018-10-18T02:37:51.869Z,98220.00
2018-10-18T02:41:54.186Z,98216.00
2018-10-18T02:45:56.632Z,98215.00
2018-10-18T02:49:59.040Z,98221.00
2018-10-18T02:54:01.388Z,98219.00
2018-10-18T02:58:03.728Z,98218.00
2018-10-18T03:02:06.882Z,98217.00
2018-10-18T03:06:09.178Z,98219.00
2018-10-18T03:10:11.423Z,98222.00
2018-10-18T03:14:13.849Z,98225.00
2018-10-18T03:18:16.266Z,98230.00
2018-10-18T03:22:18.587Z,98224.00
2018-10-18T03:26:20.886Z,98234.00
2018-10-18T03:30:23.312Z,98236.00
2018-10-18T03:34:25.517Z,98230.00
2018-10-18T03:38:28.505Z,98233.00
2018-10-18T03:42:31.001Z,98243.00
2018-10-18T03:46:33.516Z,98241.00
2018-10-18T03:50:35.886Z,98241.00
2018-10-18T03:54:38.218Z,98247.00
2018-10-18T03:58:40.513Z,98244.00
2018-10-18T04:02:42.857Z,98243.00
2018-10-18T04:06:45.153Z,98248.00
2018-10-18T04:10:47.461Z,98243.00
2018-10-18T04:14:49.759Z,98248.00
2018-10-18T04:18:52.067Z,98246.00
2018-10-18T04:22:54.346Z,98245.00
2018-10-18T04:26:57.013Z,98249.00
2018-10-18T04:31:00.187Z,98256.00
2018-10-18T04:35:02.601Z,98264.00
2018-10-18T04:39:07.162Z,98253.00
2018-10-18T04:43:09.508Z,98257.00
2018-10-18T04:47:11.946Z,98255.00
2018-10-18T04:51:14.244Z,98254.00
2018-10-18T04:55:16.607Z,98260.00
2018-10-18T04:59:18.876Z,98261.00
2018-10-18T05:03:21.151Z,98264.00
2018-10-18T05:07:23.518Z,98270.00
2018-10-18T05:11:25.912Z,98280.00
2018-10-18T05:15:28.192Z,98273.00
2018-10-18T05:19:30.496Z,98283.00
2018-10-18T05:23:32.806Z,98285.00
2018-10-18T05:27:35.158Z,98294.00
2018-10-18T05:31:37.493Z,98289.00
2018-10-18T05:35:39.885Z,98298.00
2018-10-18T05:39:42.186Z,98303.00
2018-10-18T05:43:44.566Z,98305.00
2018-10-18T05:47:46.873Z,98317.00
2018-10-18T05:51:49.216Z,98325.00
2018-10-18T05:55:51.472Z,98334.00
2018-10-18T05:59:53.767Z,98338.00
2018-10-18T06:03:56.056Z,98350.00
2018-10-18T06:07:58.396Z,98342.00
2018-10-18T06:12:00.728Z,98359.00
2018-10-18T06:16:03.026Z,98347.00
2018-10-18T06:20:05.708Z,98360.00
2018-10-18T06:24:08.012Z,98369.00
2018-10-18T06:28:10.352Z,98367.00
2018-10-18T06:32:12.663Z,98368.00
2018-10-18T06:36:15.067Z,98374.00
2018-10-18T06:40:17.936Z,98379.00
2018-10-18T06:44:20.211Z,98382.00
2018-10-18T06:48:22.599Z,98380.00
2018-10-18T06:52:24.930Z,98383.00
2018-10-18T06:56:27.322Z,98390.00
2018-10-18T07:00:29.681Z,98394.00
2018-10-18T07:04:31.955Z,98397.00
2018-10-18T07:08:34.286Z,98398.00
2018-10-18T07:12:37.379Z,98409.00
2018-10-18T07:16:39.681Z,98400.00
2018-10-18T07:20:42.100Z,98413.00
2018-10-18T07:24:44.537Z,98380.00
2018-10-18T07:28:47.177Z,98428.00
2018-10-18T07:32:49.410Z,98439.00
2018-10-18T07:36:51.749Z,98444.00
2018-10-18T07:40:54.096Z,98461.00
2018-10-18T07:44:56.560Z,98440.00
2018-10-18T07:48:58.859Z,98460.00
2018-10-18T07:53:01.241Z,98466.00
2018-10-18T07:57:03.675Z,98465.00
2018-10-18T08:01:05.984Z,98458.00
2018-10-18T08:05:08.720Z,98466.00
2018-10-18T08:09:12.741Z,98466.00
2018-10-18T08:13:15.082Z,98457.00
2018-10-18T08:17:17.538Z,98451.00
2018-10-18T08:21:19.862Z,98443.00
2018-10-18T08:25:22.176Z,98441.00
2018-10-18T08:29:24.520Z,98440.00
2018-10-18T08:33:26.896Z,98442.00
2018-10-18T08:37:29.252Z,98442.00
2018-10-18T08:41:31.528Z,98451.00
2018-10-18T08:45:33.844Z,98444.00
2018-10-18T08:49:36.305Z,98438.00
2018-10-18T08:53:38.549Z,98446.00
2018-10-18T08:57:41.356Z,98456.00
2018-10-18T09:01:43.660Z,98447.00
2018-10-18T09:05:46.061Z,98444.00
2018-10-18T09:09:48.370Z,98446.00
2018-10-18T09:13:50.683Z,98447.00
2018-10-18T09:17:53.016Z,98449.00
2018-10-18T09:21:55.540Z,98440.00
2018-10-18T09:25:57.838Z,98452.00
2018-10-18T09:30:00.226Z,98429.00
2018-10-18T09:34:02.575Z,98434.00
2018-10-18T09:38:05.625Z,98435.00
2018-10-18T09:42:07.950Z,98435.00
2018-10-18T09:46:10.319Z,98432.00
2018-10-18T09:50:12.691Z,98420.00
2018-10-18T09:54:15.034Z,98406.00
2018-10-18T09:58:17.338Z,98422.00
2018-10-18T10:02:25.310Z,98422.00
2018-10-18T10:06:27.663Z,98413.00
2018-10-18T10:10:29.978Z,98419.00
2018-10-18T10:14:32.342Z,98406.00
2018-10-18T10:18:34.768Z,98411.00
2018-10-18T10:22:37.215Z,98417.00
2018-10-18T10:26:39.585Z,98410.00
2018-10-18T10:30:42.034Z,98409.00
2018-10-18T10:34:44.393Z,98404.00
2018-10-18T10:38:46.964Z,98416.00
2018-10-18T10:42:49.383Z,98412.00
2018-10-18T10:46:54.175Z,98422.00
2018-10-18T10:50:56.691Z,98418.00
2018-10-18T10:55:00.558Z,98413.00
2018-10-18T10:59:10.588Z,98404.00
2018-10-18T11:03:13.189Z,98410.00
2018-10-18T11:07:15.864Z,98410.00
2018-10-18T11:11:18.598Z,98395.00
2018-10-18T11:15:21.029Z,98414.00
2018-10-18T11:19:23.319Z,98418.00
2018-10-18T11:23:25.670Z,98403.00
2018-10-18T11:27:28.227Z,98413.00
2018-10-18T11:31:30.849Z,98412.00
2018-10-18T11:35:33.219Z,98411.00
2018-10-18T11:39:35.580Z,98418.00
2018-10-18T11:43:37.963Z,98419.00
2018-10-18T11:47:40.361Z,98410.00
2018-10-18T11:51:42.894Z,98404.00
2018-10-18T11:55:45.187Z,98409.00
2018-10-18T11:59:47.573Z,98406.00
2018-10-18T12:03:50.123Z,98411.00
2018-10-18T12:07:53.196Z,98412.00
2018-10-18T12:11:55.541Z,98417.00
2018-10-18T12:15:58.763Z,98418.00
2018-10-18T12:20:01.282Z,98410.00
2018-10-18T12:24:03.707Z,98400.00
2018-10-18T12:28:06.184Z,98404.00
2018-10-18T12:32:08.654Z,98406.00
2018-10-18T12:37:40.483Z,98405.00
2018-10-18T12:41:42.981Z,98415.00
2018-10-18T12:45:45.262Z,98420.00
2018-10-18T12:49:47.631Z,98407.00
2018-10-18T12:53:49.997Z,98415.00
2018-10-18T12:57:52.395Z,98424.00
2018-10-18T13:01:54.883Z,98413.00
2018-10-18T13:05:57.262Z,98419.00
2018-10-18T13:09:59.599Z,98410.00
2018-10-18T13:14:02.091Z,98409.00
2018-10-18T13:18:04.867Z,98414.00
2018-10-18T13:22:07.168Z,98415.00
2018-10-18T13:26:09.498Z,98406.00
2018-10-18T13:30:12.872Z,98407.00
2018-10-18T13:34:15.153Z,98399.00
2018-10-18T13:38:17.562Z,98404.00
2018-10-18T13:42:19.979Z,98407.00
2018-10-18T13:46:22.442Z,98402.00
2018-10-18T13:50:24.812Z,98411.00
2018-10-18T13:54:28.372Z,98417.00
2018-10-18T13:58:30.715Z,98406.00
2018-10-18T14:02:33.096Z,98399.00
2018-10-18T14:06:35.393Z,98410.00
2018-10-18T14:10:37.764Z,98396.00
2018-10-18T14:14:40.093Z,98394.00
2018-10-18T14:18:42.653Z,98395.00
2018-10-18T14:22:45.079Z,98390.00
2018-10-18T14:26:48.306Z,98412.00
2018-10-18T14:30:50.753Z,98403.00
2018-10-18T14:34:53.202Z,98383.00
2018-10-18T14:38:55.645Z,98388.00
2018-10-18T14:42:58.478Z,98389.00
2018-10-18T14:47:00.903Z,98387.00
2018-10-18T14:51:03.157Z,98390.00
2018-10-18T14:55:05.945Z,98401.00
2018-10-18T14:59:08.773Z,98399.00
2018-10-18T15:03:11.127Z,98398.00
2018-10-18T15:07:13.489Z,98403.00
2018-10-18T15:11:15.901Z,98402.00
2018-10-18T15:15:18.192Z,98409.00
2018-10-18T15:19:20.569Z,98407.00
2018-10-18T15:23:23.086Z,98402.00
2018-10-18T15:27:25.969Z,98399.00
2018-10-18T15:31:28.211Z,98398.00
2018-10-18T15:35:30.561Z,98396.00
2018-10-18T15:39:33.066Z,98407.00
2018-10-18T15:43:35.331Z,98407.00
2018-10-18T15:47:37.921Z,98415.00
2018-10-18T15:51:40.298Z,98410.00
2018-10-18T15:55:42.688Z,98412.00
2018-10-18T15:59:45.068Z,98416.00
2018-10-18T16:03:47.450Z,98420.00
2018-10-18T16:07:49.827Z,98412.00
2018-10-18T16:11:52.208Z,98427.00
2018-10-18T16:15:54.561Z,98431.00
2018-10-18T16:19:56.919Z,98434.00
2018-10-18T16:23:59.308Z,98440.00
2018-10-18T16:28:01.821Z,98443.00
2018-10-18T16:32:04.400Z,98446.00
2018-10-18T16:36:06.753Z,98453.00
2018-10-18T16:40:09.148Z,98455.00
2018-10-18T16:44:12.625Z,98462.00
2018-10-18T16:48:15.029Z,98457.00
2018-10-18T16:52:17.465Z,98460.00
2018-10-18T16:56:21.618Z,98458.00
2018-10-18T17:00:24.081Z,98460.00
2018-10-18T17:04:26.683Z,98460.00
2018-10-18T17:08:28.931Z,98467.00
2018-10-18T17:12:31.252Z,98470.00
2018-10-18T17:16:33.950Z,98475.00
2018-10-18T17:20:36.458Z,98486.00
2018-10-18T17:24:38.794Z,98483.00
2018-10-18T17:28:41.223Z,98484.00
2018-10-18T17:32:43.638Z,98486.00
2018-10-18T17:36:46.821Z,98495.00
2018-10-18T17:40:49.328Z,98491.00
2018-10-18T17:44:51.572Z,98497.00
2018-10-18T17:48:53.947Z,98494.00
2018-10-18T17:52:56.433Z,98499.00
2018-10-18T17:56:58.821Z,98490.00
2018-10-18T18:01:01.297Z,98492.00
2018-10-18T18:05:04.479Z,98497.00
2018-10-18T18:09:07.893Z,98498.00
2018-10-18T18:13:10.287Z,98501.00
2018-10-18T18:17:12.656Z,98499.00
2018-10-18T18:21:15.028Z,98499.00
2018-10-18T18:25:17.474Z,98508.00
2018-10-18T18:29:19.856Z,98519.00
2018-10-18T18:33:22.265Z,98521.00
2018-10-18T18:37:24.690Z,98526.00
2018-10-18T18:41:27.136Z,98522.00
2018-10-18T18:45:35.730Z,98525.00
2018-10-18T18:49:38.236Z,98524.00
2018-10-18T18:53:40.591Z,98548.00
2018-10-18T18:57:43.139Z,98545.00
2018-10-18T19:01:45.570Z,98546.00
2018-10-18T19:05:48.090Z,98546.00
2018-10-18T19:09:50.612Z,98546.00
2018-10-18T19:13:53.099Z,98555.00
2018-10-18T19:17:56.193Z,98560.00
2018-10-18T19:21:58.701Z,98555.00
2018-10-18T19:26:01.160Z,98555.00
2018-10-18T19:30:03.623Z,98555.00
2018-10-18T19:34:06.052Z,98562.00
2018-10-18T19:38:08.442Z,98555.00
2018-10-18T19:42:10.752Z,98561.00
2018-10-18T19:46:13.343Z,98560.00
2018-10-18T19:50:16.036Z,98567.00
2018-10-18T19:54:18.583Z,98566.00
2018-10-18T19:58:21.140Z,98567.00
2018-10-18T20:02:23.911Z,98575.00
2018-10-18T20:06:26.365Z,98575.00
2018-10-18T20:10:28.946Z,98580.00
2018-10-18T20:14:31.468Z,98581.00
2018-10-18T20:18:33.959Z,98574.00
2018-10-18T20:22:36.310Z,98582.00
2018-10-18T20:26:39.026Z,98585.00
2018-10-18T20:30:41.472Z,98592.00
2018-10-18T20:34:43.986Z,98586.00
2018-10-18T20:38:46.374Z,98594.00
2018-10-18T20:42:48.743Z,98592.00
2018-10-18T20:46:51.441Z,98592.00
2018-10-18T20:50:54.049Z,98606.00
2018-10-18T20:54:56.417Z,98597.00
2018-10-18T20:58:58.919Z,98598.00
2018-10-18T21:03:01.429Z,98601.00
2018-10-18T21:07:04.050Z,98605.00
2018-10-18T21:11:06.486Z,98606.00
2018-10-18T21:15:09.014Z,98597.00
2018-10-18T21:19:11.434Z,98601.00
2018-10-18T21:23:14.053Z,98592.00
2018-10-18T21:27:16.394Z,98597.00
2018-10-18T21:31:18.805Z,98599.00
2018-10-18T21:35:21.215Z,98599.00
2018-10-18T21:39:34.817Z,98595.00
2018-10-18T21:43:37.169Z,98591.00
2018-10-18T21:47:39.764Z,98597.00
2018-10-18T21:51:42.180Z,98589.00
2018-10-18T21:55:44.536Z,98589.00
2018-10-18T21:59:46.933Z,98586.00
2018-10-18T22:03:49.339Z,98582.00
2018-10-18T22:07:53.820Z,98585.00
2018-10-18T22:11:56.761Z,98586.00
2018-10-18T22:15:59.527Z,98578.00
2018-10-18T22:20:01.933Z,98578.00
2018-10-18T22:24:04.688Z,98576.00
2018-10-18T22:28:09.155Z,98577.00
2018-10-18T22:32:11.552Z,98572.00
2018-10-18T22:36:13.921Z,98578.00
2018-10-18T22:40:16.316Z,98574.00
2018-10-18T22:44:18.684Z,98577.00
2018-10-18T22:48:21.039Z,98568.00
2018-10-18T22:52:23.454Z,98566.00
2018-10-18T22:56:25.812Z,98563.00
2018-10-18T23:00:28.190Z,98550.00
2018-10-18T23:04:30.612Z,98570.00
2018-10-18T23:08:32.952Z,98564.00
2018-10-18T23:12:35.299Z,98563.00
2018-10-18T23:16:38.223Z,98562.00
2018-10-18T23:20:40.920Z,98561.00
2018-10-18T23:24:43.423Z,98544.00
2018-10-18T23:28:45.917Z,98542.00
2018-10-18T23:32:48.338Z,98547.00
2018-10-18T23:36:50.748Z,98544.00
2018-10-18T23:40:53.175Z,98549.00
2018-10-18T23:44:55.618Z,98541.00
2018-10-18T23:48:58.020Z,98537.00
2018-10-18T23:53:00.409Z,98537.00
2018-10-18T23:57:02.795Z,98540.00
